Time;durP1;ratioP1;P1;durP2;ratioP2;P2;SDS_P1;SDS_P2;PMS_P1;PMS_P2;Temp;Humidity;BMP_temperature;BMP_pressure;BME280_temperature;BME280_humidity;BME280_pressure;Samples;Min_cycle;Max_cycle;Signal;HPM_P1;HPM_P2
2023/03/29 00:01:05;;;;;;;1.70;1.20;;;;;;;;;;6186021;28;20375;-73
2023/03/29 00:04:14;;;;;;;1.60;1.60;;;;;;;;;;6184420;28;20597;-74
2023/03/29 00:07:22;;;;;;;1.50;1.50;;;;;;;;;;6186412;28;20587;-73
2023/03/29 00:10:27;;;;;;;1.97;1.83;;;;;;;;;;6191765;28;20299;-73
2023/03/29 00:13:32;;;;;;;1.70;1.60;;;;;;;;;;6186239;28;20298;-73
2023/03/29 00:16:38;;;;;;;1.70;1.60;;;;;;;;;;6186186;28;20438;-72
2023/03/29 00:19:46;;;;;;;1.30;1.30;;;;;;;;;;6186547;28;20305;-73
2023/03/29 00:22:51;;;;;;;1.40;1.40;;;;;;;;;;6185845;28;20277;-73
2023/03/29 00:25:56;;;;;;;1.63;1.53;;;;;;;;;;6186562;28;20388;-73
2023/03/29 00:29:01;;;;;;;2.53;1.47;;;;;;;;;;6190750;28;20291;-73
2023/03/29 00:32:07;;;;;;;1.30;1.30;;;;;;;;;;6195982;28;20292;-72
2023/03/29 00:35:14;;;;;;;2.20;2.00;;;;;;;;;;6193798;28;20287;-73
2023/03/29 00:38:19;;;;;;;1.37;1.37;;;;;;;;;;6195110;28;20307;-73
2023/03/29 00:41:24;;;;;;;1.50;1.50;;;;;;;;;;6195817;28;20291;-72
2023/03/29 00:44:53;;;;;;;1.60;1.60;;;;;;;;;;6192983;28;20484;-73
2023/03/29 00:48:01;;;;;;;1.37;1.37;;;;;;;;;;6193882;28;20288;-72
2023/03/29 00:51:09;;;;;;;1.30;1.30;;;;;;;;;;6196195;28;20288;-72
2023/03/29 00:54:18;;;;;;;1.67;1.57;;;;;;;;;;6194087;28;20295;-73
2023/03/29 00:57:25;;;;;;;1.50;1.50;;;;;;;;;;6195376;28;20305;-74
2023/03/29 01:00:35;;;;;;;1.17;1.17;;;;;;;;;;6194335;28;20308;-72
2023/03/29 01:03:45;;;;;;;1.50;1.40;;;;;;;;;;6207317;23;20310;-76
2023/03/29 01:06:56;;;;;;;3.33;1.50;;;;;;;;;;6208411;28;20482;-75
2023/03/29 01:10:07;;;;;;;6.30;1.70;;;;;;;;;;6210052;28;20303;-75
2023/03/29 01:13:15;;;;;;;2.00;1.90;;;;;;;;;;6209394;28;20290;-76
2023/03/29 01:16:21;;;;;;;4.63;1.53;;;;;;;;;;6213040;28;20290;-77
2023/03/29 01:19:33;;;;;;;1.77;1.63;;;;;;;;;;6213788;28;20306;-74
2023/03/29 01:22:50;;;;;;;1.90;1.80;;;;;;;;;;6212533;28;20276;-75
2023/03/29 01:26:01;;;;;;;1.90;1.70;;;;;;;;;;6215144;28;20271;-75
2023/03/29 01:29:10;;;;;;;2.20;1.70;;;;;;;;;;6214463;28;20291;-73
2023/03/29 01:32:18;;;;;;;2.13;1.43;;;;;;;;;;6213771;28;20294;-76
2023/03/29 01:35:27;;;;;;;2.40;1.63;;;;;;;;;;6213378;28;20296;-75
2023/03/29 01:38:37;;;;;;;3.03;1.70;;;;;;;;;;6213672;28;20303;-74
2023/03/29 01:41:46;;;;;;;2.97;1.57;;;;;;;;;;6213525;28;20301;-75
2023/03/29 01:44:58;;;;;;;1.70;1.60;;;;;;;;;;6214543;28;20299;-76
2023/03/29 01:48:09;;;;;;;1.77;1.63;;;;;;;;;;6216322;28;20296;-76
2023/03/29 01:51:18;;;;;;;2.83;1.70;;;;;;;;;;6214874;28;20311;-76
2023/03/29 01:54:27;;;;;;;1.90;1.90;;;;;;;;;;6214966;28;20298;-75
2023/03/29 01:57:34;;;;;;;6.83;1.97;;;;;;;;;;6216736;28;20315;-75
2023/03/29 02:00:42;;;;;;;6.07;1.97;;;;;;;;;;6215621;28;20291;-77
2023/03/29 02:03:49;;;;;;;3.33;2.10;;;;;;;;;;6213210;28;20388;-77
2023/03/29 02:06:55;;;;;;;3.63;1.87;;;;;;;;;;6213988;28;20299;-77
2023/03/29 02:10:02;;;;;;;2.17;1.97;;;;;;;;;;6212598;28;20301;-76
2023/03/29 02:13:07;;;;;;;2.10;2.00;;;;;;;;;;6212817;28;20317;-75
2023/03/29 02:16:14;;;;;;;6.27;2.27;;;;;;;;;;6214137;28;20304;-76
2023/03/29 02:19:20;;;;;;;2.20;1.80;;;;;;;;;;6213312;28;20308;-75
2023/03/29 02:22:28;;;;;;;2.20;2.10;;;;;;;;;;6213008;28;20298;-76
2023/03/29 02:25:33;;;;;;;3.13;1.90;;;;;;;;;;6213272;28;20293;-75
2023/03/29 02:28:38;;;;;;;4.03;2.13;;;;;;;;;;6210585;28;20575;-74
2023/03/29 02:31:49;;;;;;;1.90;1.90;;;;;;;;;;6212636;28;20374;-75
2023/03/29 02:34:58;;;;;;;2.07;1.87;;;;;;;;;;6213144;28;20575;-76
2023/03/29 02:38:06;;;;;;;1.60;1.60;;;;;;;;;;6211763;28;20486;-75
2023/03/29 02:41:12;;;;;;;6.93;1.93;;;;;;;;;;6212555;28;20302;-75
2023/03/29 02:44:20;;;;;;;2.20;2.10;;;;;;;;;;6211947;28;20614;-75
2023/03/29 02:47:31;;;;;;;4.67;1.87;;;;;;;;;;6211979;28;20317;-75
2023/03/29 02:50:39;;;;;;;3.13;2.10;;;;;;;;;;6211383;28;20298;-75
2023/03/29 02:53:49;;;;;;;2.10;1.80;;;;;;;;;;6211211;28;20296;-75
2023/03/29 02:56:58;;;;;;;2.33;1.93;;;;;;;;;;6212029;28;20289;-76
2023/03/29 03:00:08;;;;;;;2.20;2.10;;;;;;;;;;6212803;28;20302;-75
2023/03/29 03:03:15;;;;;;;2.23;2.13;;;;;;;;;;6196639;28;20309;-75
2023/03/29 03:06:24;;;;;;;4.83;1.90;;;;;;;;;;6195312;28;20294;-76
2023/03/29 03:09:29;;;;;;;2.00;1.90;;;;;;;;;;6210475;28;20601;-75
2023/03/29 03:12:36;;;;;;;1.83;1.80;;;;;;;;;;6185038;28;20303;-75
2023/03/29 03:15:42;;;;;;;5.93;2.30;;;;;;;;;;6211287;28;20538;-75
2023/03/29 03:18:50;;;;;;;2.00;1.87;;;;;;;;;;6210782;28;20586;-74
2023/03/29 03:21:55;;;;;;;2.00;2.00;;;;;;;;;;6211443;28;20296;-75
2023/03/29 03:25:01;;;;;;;2.57;2.07;;;;;;;;;;6210744;28;20298;-75
2023/03/29 03:28:06;;;;;;;2.00;1.97;;;;;;;;;;6211681;28;20290;-75
2023/03/29 03:31:12;;;;;;;1.80;1.80;;;;;;;;;;6211288;28;20297;-75
2023/03/29 03:34:45;;;;;;;2.30;2.10;;;;;;;;;;6182951;28;20293;-75
2023/03/29 03:37:50;;;;;;;2.97;2.10;;;;;;;;;;6187060;28;20294;-75
2023/03/29 03:40:56;;;;;;;3.00;2.20;;;;;;;;;;6166216;28;20293;-76
2023/03/29 03:44:02;;;;;;;2.07;2.03;;;;;;;;;;6172847;28;20556;-76
2023/03/29 03:47:08;;;;;;;2.23;2.13;;;;;;;;;;6166560;28;20286;-75
2023/03/29 03:50:16;;;;;;;2.33;2.30;;;;;;;;;;6163355;28;20291;-74
2023/03/29 03:53:22;;;;;;;2.20;2.10;;;;;;;;;;6162889;28;20307;-76
2023/03/29 03:56:46;;;;;;;2.30;2.10;;;;;;;;;;6163984;28;20295;-75
2023/03/29 04:00:08;;;;;;;2.43;2.23;;;;;;;;;;6161972;28;20382;-74
2023/03/29 04:03:17;;;;;;;3.87;2.37;;;;;;;;;;6162794;28;20308;-76
2023/03/29 04:06:24;;;;;;;2.03;1.93;;;;;;;;;;6177556;28;20295;-75
2023/03/29 04:09:58;;;;;;;2.83;2.00;;;;;;;;;;6171901;28;20602;-75
2023/03/29 04:13:16;;;;;;;2.03;1.97;;;;;;;;;;6201386;28;20311;-75
2023/03/29 04:16:40;;;;;;;2.60;2.40;;;;;;;;;;6162488;28;20285;-75
2023/03/29 04:20:10;;;;;;;2.50;2.30;;;;;;;;;;6162929;28;20299;-75
2023/03/29 04:23:18;;;;;;;2.43;2.33;;;;;;;;;;6162589;28;20296;-75
2023/03/29 04:26:23;;;;;;;2.37;2.27;;;;;;;;;;6162870;28;20303;-75
2023/03/29 04:29:35;;;;;;;5.10;2.37;;;;;;;;;;6171464;28;20303;-76
2023/03/29 04:32:52;;;;;;;5.83;2.23;;;;;;;;;;6167662;28;20295;-76
2023/03/29 04:35:58;;;;;;;2.40;2.30;;;;;;;;;;6163079;28;20607;-75
2023/03/29 04:39:06;;;;;;;2.13;2.03;;;;;;;;;;6162440;28;20311;-74
2023/03/29 04:42:13;;;;;;;3.87;1.90;;;;;;;;;;6174773;28;20298;-74
2023/03/29 04:45:18;;;;;;;1.83;1.73;;;;;;;;;;6163395;28;20306;-75
2023/03/29 04:48:39;;;;;;;2.33;2.27;;;;;;;;;;6177091;28;20299;-74
2023/03/29 04:51:45;;;;;;;3.60;2.17;;;;;;;;;;6188975;28;20298;-76
2023/03/29 04:54:54;;;;;;;2.03;1.93;;;;;;;;;;6191285;28;20316;-75
2023/03/29 04:58:18;;;;;;;8.60;2.50;;;;;;;;;;6192156;28;20299;-75
2023/03/29 05:01:27;;;;;;;2.40;2.30;;;;;;;;;;6191059;28;20298;-76
2023/03/29 05:04:35;;;;;;;3.97;2.47;;;;;;;;;;6191523;28;20309;-75
2023/03/29 05:07:47;;;;;;;1.80;1.80;;;;;;;;;;6205488;28;20291;-75
2023/03/29 05:10:58;;;;;;;7.63;2.80;;;;;;;;;;6193228;28;20272;-77
2023/03/29 05:14:06;;;;;;;4.53;2.63;;;;;;;;;;6214846;28;20295;-74
2023/03/29 05:17:13;;;;;;;2.73;2.60;;;;;;;;;;6215259;28;20581;-75
2023/03/29 05:20:19;;;;;;;7.77;2.83;;;;;;;;;;6215112;28;20470;-75
2023/03/29 05:23:25;;;;;;;5.73;2.63;;;;;;;;;;6214186;28;20293;-75
2023/03/29 05:26:52;;;;;;;6.67;2.60;;;;;;;;;;6195483;28;20297;-75
2023/03/29 05:29:57;;;;;;;4.23;2.40;;;;;;;;;;6215593;28;20585;-75
2023/03/29 05:33:13;;;;;;;3.00;2.73;;;;;;;;;;6214702;28;20294;-76
2023/03/29 05:36:19;;;;;;;2.77;2.57;;;;;;;;;;6215620;28;20299;-76
2023/03/29 05:39:27;;;;;;;2.47;2.30;;;;;;;;;;6213371;28;20295;-76
2023/03/29 05:42:34;;;;;;;4.73;2.23;;;;;;;;;;6212464;28;20485;-75
2023/03/29 05:45:44;;;;;;;5.60;2.60;;;;;;;;;;6213258;28;20113;-77
2023/03/29 05:48:50;;;;;;;;;;;;;;;;;;6213612;28;20129;-75
2023/03/29 05:51:57;;;;;;;;;;;;;;;;;;6214045;28;19985;-75
2023/03/29 05:55:04;;;;;;;;;;;;;;;;;;6213494;28;19988;-76
2023/03/29 05:58:12;;;;;;;;;;;;;;;;;;6214695;28;19976;-75
2023/03/29 06:01:18;;;;;;;;;;;;;;;;;;6213211;28;19985;-77
2023/03/29 06:04:32;;;;;;;;;;;;;;;;;;6212791;28;19988;-74
2023/03/29 06:07:52;;;;;;;;;;;;;;;;;;6213815;28;20008;-74
2023/03/29 06:11:36;;;;;;;;;;;;;;;;;;6174686;28;19981;-75
2023/03/29 06:14:47;;;;;;;;;;;;;;;;;;6187312;28;20278;-76
2023/03/29 06:18:12;;;;;;;;;;;;;;;;;;6212922;28;20265;-76
2023/03/29 06:21:17;;;;;;;;;;;;;;;;;;6213106;28;19996;-77
2023/03/29 06:24:23;;;;;;;;;;;;;;;;;;6212302;28;19980;-75
2023/03/29 06:27:36;;;;;;;;;;;;;;;;;;6212935;28;19973;-76
2023/03/29 06:30:42;;;;;;;;;;;;;;;;;;6214235;28;19985;-75
2023/03/29 06:33:48;;;;;;;;;;;;;;;;;;6214301;28;20068;-75
2023/03/29 06:37:14;;;;;;;2.30;2.20;;;;;;;;;;6212380;28;20287;-75
2023/03/29 06:40:21;;;;;;;2.10;2.00;;;;;;;;;;6211475;28;20305;-74
2023/03/29 06:43:27;;;;;;;1.87;1.87;;;;;;;;;;6212506;28;20308;-75
2023/03/29 06:46:44;;;;;;;4.47;1.67;;;;;;;;;;6211518;28;20281;-74
2023/03/29 06:49:52;;;;;;;2.10;2.00;;;;;;;;;;6211869;28;20290;-75
2023/03/29 06:53:06;;;;;;;2.07;2.00;;;;;;;;;;6211328;28;20320;-75
2023/03/29 06:56:13;;;;;;;2.37;1.90;;;;;;;;;;6212411;28;20475;-75
2023/03/29 06:59:20;;;;;;;2.03;1.70;;;;;;;;;;6211477;28;20296;-74
2023/03/29 07:02:34;;;;;;;2.90;2.20;;;;;;;;;;6210893;28;20297;-75
2023/03/29 07:05:50;;;;;;;1.80;1.80;;;;;;;;;;6211530;28;20302;-74
2023/03/29 07:08:58;;;;;;;2.70;2.37;;;;;;;;;;6211437;28;20297;-75
2023/03/29 07:12:22;;;;;;;2.07;1.97;;;;;;;;;;6184106;28;20295;-75
2023/03/29 07:15:33;;;;;;;2.00;1.83;;;;;;;;;;6207739;28;20320;-75
2023/03/29 07:19:00;;;;;;;1.57;1.50;;;;;;;;;;6218117;28;20303;-78
2023/03/29 07:22:26;;;;;;;3.23;1.97;;;;;;;;;;6182930;28;20496;-75
2023/03/29 07:25:38;;;;;;;1.73;1.57;;;;;;;;;;6187686;28;20604;-76
2023/03/29 07:28:44;;;;;;;1.60;1.50;;;;;;;;;;6197092;28;20484;-77
2023/03/29 07:31:49;;;;;;;1.50;1.40;;;;;;;;;;6212532;28;20589;-77
2023/03/29 07:35:17;;;;;;;1.63;1.53;;;;;;;;;;6212917;28;20294;-76
2023/03/29 07:38:24;;;;;;;1.67;1.60;;;;;;;;;;6210588;28;20303;-76
2023/03/29 07:41:35;;;;;;;1.40;1.40;;;;;;;;;;6211254;28;20296;-76
2023/03/29 07:44:49;;;;;;;1.27;1.20;;;;;;;;;;6211386;28;20296;-76
2023/03/29 07:47:55;;;;;;;1.73;1.23;;;;;;;;;;6210762;28;20287;-77
2023/03/29 07:51:03;;;;;;;1.70;1.37;;;;;;;;;;6211076;28;20300;-77
2023/03/29 07:54:26;;;;;;;3.80;1.50;;;;;;;;;;6210359;28;20596;-76
2023/03/29 07:57:46;;;;;;;4.37;1.20;;;;;;;;;;6209756;28;20292;-76
2023/03/29 08:00:52;;;;;;;1.10;1.10;;;;;;;;;;6212176;28;20296;-76
2023/03/29 08:04:18;;;;;;;1.20;1.20;;;;;;;;;;6209669;28;20307;-75
2023/03/29 08:07:46;;;;;;;1.20;1.20;;;;;;;;;;6211228;28;20304;-76
2023/03/29 08:10:51;;;;;;;2.70;1.43;;;;;;;;;;6211672;28;20261;-74
2023/03/29 08:14:09;;;;;;;1.10;1.10;;;;;;;;;;6186499;28;20289;-75
2023/03/29 08:17:36;;;;;;;1.33;1.23;;;;;;;;;;6185864;28;20301;-75
2023/03/29 08:20:42;;;;;;;3.30;1.10;;;;;;;;;;6187388;28;20590;-76
2023/03/29 08:23:49;;;;;;;2.40;1.20;;;;;;;;;;6185575;28;20302;-76
2023/03/29 08:26:58;;;;;;;2.47;1.20;;;;;;;;;;6186323;28;20308;-75
2023/03/29 08:30:05;;;;;;;1.20;1.20;;;;;;;;;;6185688;28;20301;-75
2023/03/29 08:33:13;;;;;;;1.20;1.20;;;;;;;;;;6186842;28;20296;-75
2023/03/29 08:36:20;;;;;;;1.27;1.27;;;;;;;;;;6187107;28;20461;-75
2023/03/29 08:39:28;;;;;;;1.10;1.10;;;;;;;;;;6185542;28;20297;-75
2023/03/29 08:43:17;;;;;;;1.40;1.30;;;;;;;;;;6185398;28;20603;-75
2023/03/29 08:46:58;;;;;;;0.90;0.90;;;;;;;;;;6184866;28;20281;-75
2023/03/29 08:50:11;;;;;;;1.33;1.30;;;;;;;;;;6185623;28;20328;-77
2023/03/29 08:53:23;;;;;;;1.70;1.27;;;;;;;;;;6185293;28;20581;-75
2023/03/29 08:56:42;;;;;;;1.50;1.40;;;;;;;;;;6185542;28;20298;-75
2023/03/29 09:00:06;;;;;;;1.30;1.30;;;;;;;;;;6185209;28;20305;-75
2023/03/29 09:03:20;;;;;;;1.33;1.33;;;;;;;;;;6185076;28;20309;-75
2023/03/29 09:06:27;;;;;;;1.83;1.23;;;;;;;;;;6185743;28;20324;-75
2023/03/29 09:09:42;;;;;;;1.43;1.33;;;;;;;;;;6185199;28;20311;-76
2023/03/29 09:13:06;;;;;;;1.13;1.13;;;;;;;;;;6185549;28;20304;-75
2023/03/29 09:16:18;;;;;;;1.60;1.50;;;;;;;;;;6161423;28;20302;-75
2023/03/29 09:19:30;;;;;;;1.47;1.37;;;;;;;;;;6161140;28;20298;-76
2023/03/29 09:22:40;;;;;;;1.30;1.30;;;;;;;;;;6160305;28;20299;-75
2023/03/29 09:25:53;;;;;;;0.83;0.83;;;;;;;;;;6162795;28;20283;-75
2023/03/29 09:29:12;;;;;;;1.00;1.00;;;;;;;;;;6171776;28;20288;-76
2023/03/29 09:32:21;;;;;;;2.30;1.00;;;;;;;;;;6167689;28;20295;-74
2023/03/29 09:35:37;;;;;;;2.17;1.00;;;;;;;;;;6177190;28;20301;-75
2023/03/29 09:38:46;;;;;;;1.13;1.13;;;;;;;;;;6164943;28;20454;-76
2023/03/29 09:41:53;;;;;;;1.17;1.00;;;;;;;;;;6174959;28;20302;-76
2023/03/29 09:45:07;;;;;;;1.20;1.20;;;;;;;;;;6168452;28;20297;-76
2023/03/29 09:48:21;;;;;;;1.30;1.20;;;;;;;;;;6165026;28;20374;-75
2023/03/29 09:51:34;;;;;;;1.33;1.20;;;;;;;;;;6165419;28;20294;-75
2023/03/29 09:54:39;;;;;;;1.00;1.00;;;;;;;;;;6164823;28;20296;-75
2023/03/29 09:58:01;;;;;;;1.10;1.10;;;;;;;;;;6165515;28;20295;-75
2023/03/29 10:01:16;;;;;;;1.07;1.07;;;;;;;;;;6165169;28;20293;-75
2023/03/29 10:04:22;;;;;;;1.00;1.00;;;;;;;;;;6164194;28;20300;-76
2023/03/29 10:07:43;;;;;;;1.30;0.90;;;;;;;;;;6164605;28;20299;-75
2023/03/29 10:10:50;;;;;;;1.00;1.00;;;;;;;;;;6176834;28;20566;-77
2023/03/29 10:13:59;;;;;;;2.43;1.20;;;;;;;;;;6213663;28;20297;-74
2023/03/29 10:17:11;;;;;;;1.03;1.03;;;;;;;;;;6213998;28;20289;-74
2023/03/29 10:20:18;;;;;;;3.23;1.20;;;;;;;;;;6214339;28;20314;-75
2023/03/29 10:23:23;;;;;;;1.50;1.40;;;;;;;;;;6213154;28;20297;-76
2023/03/29 10:26:31;;;;;;;1.20;1.20;;;;;;;;;;6213991;28;20295;-76
2023/03/29 10:29:38;;;;;;;1.10;1.10;;;;;;;;;;6212934;28;20301;-77
2023/03/29 10:32:45;;;;;;;1.07;1.00;;;;;;;;;;6211990;28;20594;-75
2023/03/29 10:35:51;;;;;;;1.10;1.10;;;;;;;;;;6213616;28;20301;-75
2023/03/29 10:38:58;;;;;;;1.67;1.03;;;;;;;;;;6213310;28;20297;-76
2023/03/29 10:42:07;;;;;;;2.00;1.40;;;;;;;;;;6213447;28;20301;-75
2023/03/29 10:45:22;;;;;;;1.33;1.23;;;;;;;;;;6212936;28;20539;-75
2023/03/29 10:48:31;;;;;;;1.17;1.10;;;;;;;;;;6212991;28;20296;-76
2023/03/29 10:51:37;;;;;;;1.57;1.47;;;;;;;;;;6213185;28;20289;-75
2023/03/29 10:54:42;;;;;;;1.30;1.20;;;;;;;;;;6212935;28;20305;-75
2023/03/29 10:57:55;;;;;;;2.57;1.00;;;;;;;;;;6212246;28;20284;-74
2023/03/29 11:01:01;;;;;;;1.40;1.40;;;;;;;;;;6213073;28;20573;-76
2023/03/29 11:04:22;;;;;;;1.20;1.20;;;;;;;;;;6212134;28;20469;-76
2023/03/29 11:07:31;;;;;;;1.27;1.27;;;;;;;;;;6211619;28;20597;-74
2023/03/29 11:10:45;;;;;;;1.00;1.00;;;;;;;;;;6203590;28;20301;-75
2023/03/29 11:13:56;;;;;;;1.17;1.17;;;;;;;;;;6209152;28;20573;-75
2023/03/29 11:17:16;;;;;;;2.57;1.10;;;;;;;;;;6212925;28;20292;-75
2023/03/29 11:20:29;;;;;;;1.40;1.30;;;;;;;;;;6211424;28;20300;-76
2023/03/29 11:23:44;;;;;;;1.13;1.10;;;;;;;;;;6212346;28;20575;-76
2023/03/29 11:26:59;;;;;;;1.13;1.13;;;;;;;;;;6212482;28;20484;-74
2023/03/29 11:30:08;;;;;;;1.43;1.43;;;;;;;;;;6212448;28;20296;-75
2023/03/29 11:33:26;;;;;;;1.40;1.33;;;;;;;;;;6212184;28;20293;-74
2023/03/29 11:36:38;;;;;;;1.40;1.13;;;;;;;;;;6212391;28;20296;-76
2023/03/29 11:39:49;;;;;;;1.17;1.17;;;;;;;;;;6211372;28;20310;-75
2023/03/29 11:42:56;;;;;;;1.60;1.00;;;;;;;;;;6211232;28;20294;-75
2023/03/29 11:46:08;;;;;;;1.50;1.30;;;;;;;;;;6212313;28;20292;-75
2023/03/29 11:49:18;;;;;;;1.10;1.10;;;;;;;;;;6211788;28;20300;-76
2023/03/29 11:52:29;;;;;;;1.20;1.10;;;;;;;;;;6212119;28;20481;-75
2023/03/29 11:55:37;;;;;;;1.30;1.30;;;;;;;;;;6211162;28;20305;-75
2023/03/29 11:58:47;;;;;;;1.10;1.10;;;;;;;;;;6196422;28;20299;-74
2023/03/29 12:01:52;;;;;;;;;;;;;;;;;;6211852;28;20162;-75
2023/03/29 12:04:58;;;;;;;;;;;;;;;;;;6212406;28;19997;-76
2023/03/29 12:08:05;;;;;;;;;;;;;;;;;;6211762;28;20133;-76
2023/03/29 12:11:11;;;;;;;;;;;;;;;;;;6194417;28;20009;-76
2023/03/29 12:14:19;;;;;;;2.07;1.10;;;;;;;;;;6203109;28;20279;-75
2023/03/29 12:17:28;;;;;;;1.40;1.40;;;;;;;;;;6210474;28;20293;-76
2023/03/29 12:20:36;;;;;;;1.80;1.20;;;;;;;;;;6210818;28;20312;-75
2023/03/29 12:23:44;;;;;;;;;;;;;;;;;;6210579;28;20105;-75
2023/03/29 12:26:53;;;;;;;;;;;;;;;;;;6211955;28;19980;-75
2023/03/29 12:30:18;;;;;;;;;;;;;;;;;;6198775;28;19984;-76
2023/03/29 12:33:30;;;;;;;;;;;;;;;;;;6197629;28;19977;-76
2023/03/29 12:37:12;;;;;;;;;;;;;;;;;;6188186;28;19981;-75
2023/03/29 12:40:26;;;;;;;;;;;;;;;;;;6180518;28;19989;-75
2023/03/29 12:43:37;;;;;;;;;;;;;;;;;;6186379;28;19984;-76
2023/03/29 12:47:02;;;;;;;;;;;;;;;;;;6176078;28;20225;-74
2023/03/29 12:50:15;;;;;;;;;;;;;;;;;;6186936;28;20249;-75
2023/03/29 12:53:22;;;;;;;;;;;;;;;;;;6186963;28;19977;-77
2023/03/29 12:56:38;;;;;;;;;;;;;;;;;;6202883;28;19985;-77
2023/03/29 12:59:44;;;;;;;;;;;;;;;;;;6187155;28;19988;-75
2023/03/29 13:02:59;;;;;;;;;;;;;;;;;;6186014;28;19977;-75
2023/03/29 13:06:04;;;;;;;;;;;;;;;;;;6187494;28;19976;-75
2023/03/29 13:09:20;;;;;;;;;;;;;;;;;;6187812;28;19980;-75
2023/03/29 13:12:27;;;;;;;;;;;;;;;;;;6202840;28;19985;-76
2023/03/29 13:15:34;;;;;;;;;;;;;;;;;;6169295;28;19977;-77
2023/03/29 13:18:42;;;;;;;;;;;;;;;;;;6173356;28;19982;-77
2023/03/29 13:21:50;;;;;;;;;;;;;;;;;;6167973;28;19981;-76
2023/03/29 13:25:00;;;;;;;;;;;;;;;;;;6168002;28;20170;-75
2023/03/29 13:28:09;;;;;;;;;;;;;;;;;;6167945;28;19985;-74
2023/03/29 13:31:17;;;;;;;;;;;;;;;;;;6167919;28;19977;-75
2023/03/29 13:34:26;;;;;;;;;;;;;;;;;;6166943;28;19985;-75
2023/03/29 13:37:33;;;;;;;;;;;;;;;;;;6167176;28;19973;-76
2023/03/29 13:40:43;;;;;;;;;;;;;;;;;;6190150;28;19990;-76
2023/03/29 13:43:51;;;;;;;;;;;;;;;;;;6168110;28;19981;-75
2023/03/29 13:47:04;;;;;;;;;;;;;;;;;;6170721;28;19990;-76
2023/03/29 13:50:16;;;;;;;;;;;;;;;;;;6168314;28;19982;-75
2023/03/29 13:53:24;;;;;;;;;;;;;;;;;;6167094;28;19985;-75
2023/03/29 13:56:31;;;;;;;;;;;;;;;;;;6167571;28;19981;-75
2023/03/29 13:59:40;;;;;;;;;;;;;;;;;;6166490;28;19981;-75
2023/03/29 14:02:46;;;;;;;;;;;;;;;;;;6166356;28;19982;-75
2023/03/29 14:05:54;;;;;;;;;;;;;;;;;;6143082;29;20001;-75
2023/03/29 14:08:59;;;;;;;;;;;;;;;;;;6144225;28;19990;-76
2023/03/29 14:12:04;;;;;;;;;;;;;;;;;;6175239;28;19993;-76
2023/03/29 14:15:19;;;;;;;;;;;;;;;;;;6177183;28;19997;-75
2023/03/29 14:18:24;;;;;;;;;;;;;;;;;;6180113;28;20008;-75
2023/03/29 14:21:29;;;;;;;;;;;;;;;;;;6175927;28;19981;-76
2023/03/29 14:24:35;;;;;;;;;;;;;;;;;;6167962;28;19985;-75
2023/03/29 14:27:40;;;;;;;;;;;;;;;;;;6181783;28;19982;-76
2023/03/29 14:30:48;;;;;;;;;;;;;;;;;;6173437;28;20270;-74
2023/03/29 14:33:53;;;;;;;;;;;;;;;;;;6184564;28;19980;-76
2023/03/29 14:36:58;;;;;;;;;;;;;;;;;;6171798;28;19981;-75
2023/03/29 14:40:07;;;;;;;;;;;;;;;;;;6166734;28;20162;-76
2023/03/29 14:43:14;;;;;;;;;;;;;;;;;;6185354;28;19981;-76
2023/03/29 14:46:20;;;;;;;;;;;;;;;;;;6189185;28;19993;-75
2023/03/29 14:49:25;;;;;;;;;;;;;;;;;;6184094;28;19985;-76
2023/03/29 14:52:30;;;;;;;;;;;;;;;;;;6167886;28;20171;-75
2023/03/29 14:55:36;;;;;;;;;;;;;;;;;;6166616;28;19973;-76
2023/03/29 14:58:45;;;;;;;;;;;;;;;;;;6186307;28;20266;-75
2023/03/29 15:01:51;;;;;;;;;;;;;;;;;;6167971;28;19989;-75
2023/03/29 15:04:57;;;;;;;;;;;;;;;;;;6204129;28;19980;-76
2023/03/29 15:08:03;;;;;;;;;;;;;;;;;;6213896;28;19981;-76
2023/03/29 15:11:11;;;;;;;;;;;;;;;;;;6196395;28;19977;-76
2023/03/29 15:14:16;;;;;;;;;;;;;;;;;;6203822;28;19993;-75
2023/03/29 15:17:29;;;;;;;;;;;;;;;;;;6212923;28;19981;-76
2023/03/29 15:20:53;;;;;;;;;;;;;;;;;;6199368;28;20065;-75
2023/03/29 15:23:58;;;;;;;;;;;;;;;;;;6214116;28;19988;-74
2023/03/29 15:27:04;;;;;;;;;;;;;;;;;;6214238;28;19980;-77
2023/03/29 15:30:11;;;;;;;;;;;;;;;;;;6213272;28;19988;-75
2023/03/29 15:33:21;;;;;;;1.33;1.23;;;;;;;;;;6212678;28;20209;-74
2023/03/29 15:36:26;;;;;;;1.40;1.40;;;;;;;;;;6212915;28;20294;-76
2023/03/29 15:39:33;;;;;;;1.53;1.50;;;;;;;;;;6212516;28;20301;-76
2023/03/29 15:42:38;;;;;;;1.13;1.10;;;;;;;;;;6212950;28;20290;-75
2023/03/29 15:45:44;;;;;;;1.20;1.20;;;;;;;;;;6212569;28;20335;-75
2023/03/29 15:48:53;;;;;;;2.27;2.20;;;;;;;;;;6212028;28;20290;-76
2023/03/29 15:51:58;;;;;;;7.33;2.93;;;;;;;;;;6212911;28;20298;-74
2023/03/29 15:55:03;;;;;;;1.70;1.60;;;;;;;;;;6210996;28;20304;-76
2023/03/29 15:58:10;;;;;;;2.37;1.60;;;;;;;;;;6212366;28;20294;-76
2023/03/29 16:01:33;;;;;;;;;;;;;;;;;;6212833;28;20302;-76
2023/03/29 16:04:40;;;;;;;1.70;1.30;;;;;;;;;;6210879;28;20266;-75
2023/03/29 16:07:45;;;;;;;1.40;1.40;;;;;;;;;;6211176;28;20309;-76
2023/03/29 16:10:50;;;;;;;1.37;1.37;;;;;;;;;;6212885;28;20269;-75
2023/03/29 16:13:56;;;;;;;1.87;1.80;;;;;;;;;;6178393;28;20300;-76
2023/03/29 16:17:01;;;;;;;1.97;1.53;;;;;;;;;;6166970;28;20291;-76
2023/03/29 16:20:13;;;;;;;3.70;1.50;;;;;;;;;;6166672;28;20291;-75
2023/03/29 16:23:18;;;;;;;1.60;1.50;;;;;;;;;;6165087;28;20324;-77
2023/03/29 16:26:24;;;;;;;1.30;1.30;;;;;;;;;;6170326;28;20483;-75
2023/03/29 16:29:30;;;;;;;1.37;1.27;;;;;;;;;;6172222;28;20308;-78
2023/03/29 16:32:35;;;;;;;1.43;1.43;;;;;;;;;;6165322;28;20305;-78
2023/03/29 16:35:42;;;;;;;1.50;1.40;;;;;;;;;;6174455;28;20488;-76
2023/03/29 16:38:47;;;;;;;1.30;1.30;;;;;;;;;;6177316;28;20312;-75
2023/03/29 16:41:53;;;;;;;1.60;1.60;;;;;;;;;;6175400;28;20299;-75
2023/03/29 16:44:58;;;;;;;1.90;1.80;;;;;;;;;;6168797;28;20309;-76
2023/03/29 16:48:03;;;;;;;2.10;1.40;;;;;;;;;;6175231;28;20333;-76
2023/03/29 16:51:10;;;;;;;1.53;1.50;;;;;;;;;;6182279;28;20294;-74
2023/03/29 16:54:16;;;;;;;1.67;1.67;;;;;;;;;;6178269;28;20301;-77
2023/03/29 16:57:21;;;;;;;3.77;1.70;;;;;;;;;;6171175;28;20400;-77
2023/03/29 17:00:27;;;;;;;2.03;1.30;;;;;;;;;;6184312;28;20313;-75
2023/03/29 17:03:32;;;;;;;2.07;1.97;;;;;;;;;;6178161;28;20298;-75
2023/03/29 17:06:39;;;;;;;1.63;1.63;;;;;;;;;;6184629;28;20298;-75
2023/03/29 17:09:45;;;;;;;1.50;1.50;;;;;;;;;;6177481;28;20301;-75
2023/03/29 17:12:50;;;;;;;1.47;1.47;;;;;;;;;;6209999;28;20310;-77
2023/03/29 17:15:57;;;;;;;1.50;1.50;;;;;;;;;;6216167;28;20297;-78
2023/03/29 17:19:02;;;;;;;1.40;1.40;;;;;;;;;;6215707;28;20300;-75
2023/03/29 17:22:09;;;;;;;1.30;1.30;;;;;;;;;;6216182;28;20616;-78
2023/03/29 17:25:14;;;;;;;1.47;1.37;;;;;;;;;;6215420;28;20297;-77
2023/03/29 17:28:19;;;;;;;4.57;1.70;;;;;;;;;;6215585;28;20297;-76
2023/03/29 17:31:24;;;;;;;2.30;2.20;;;;;;;;;;6215463;28;20289;-76
2023/03/29 17:34:31;;;;;;;1.60;1.50;;;;;;;;;;6215206;28;20594;-74
2023/03/29 17:37:38;;;;;;;1.30;1.30;;;;;;;;;;6215288;28;20304;-75
2023/03/29 17:40:43;;;;;;;2.30;2.20;;;;;;;;;;6214670;28;20269;-76
2023/03/29 17:43:49;;;;;;;3.03;2.07;;;;;;;;;;6214889;28;20305;-76
2023/03/29 17:46:55;;;;;;;2.03;1.57;;;;;;;;;;6215520;28;20288;-77
2023/03/29 17:50:00;;;;;;;2.60;1.80;;;;;;;;;;6214874;28;20289;-76
2023/03/29 17:53:06;;;;;;;1.30;1.30;;;;;;;;;;6215492;28;20480;-77
2023/03/29 17:56:13;;;;;;;1.30;1.30;;;;;;;;;;6215490;28;20297;-76
2023/03/29 17:59:18;;;;;;;1.80;1.70;;;;;;;;;;6213703;28;20303;-75
2023/03/29 18:02:24;;;;;;;1.50;1.50;;;;;;;;;;6214679;28;20302;-77
2023/03/29 18:05:29;;;;;;;1.67;1.40;;;;;;;;;;6196086;28;20304;-78
2023/03/29 18:08:36;;;;;;;5.83;2.57;;;;;;;;;;6214661;28;20563;-76
2023/03/29 18:11:42;;;;;;;1.73;1.60;;;;;;;;;;6188128;28;20297;-76
2023/03/29 18:14:47;;;;;;;1.77;1.67;;;;;;;;;;6164627;28;20479;-76
2023/03/29 18:17:52;;;;;;;1.47;1.47;;;;;;;;;;6172125;28;20551;-76
2023/03/29 18:20:57;;;;;;;2.90;1.50;;;;;;;;;;6164965;28;20297;-75
2023/03/29 18:24:04;;;;;;;2.93;1.30;;;;;;;;;;6165750;28;20322;-77
2023/03/29 18:27:11;;;;;;;1.10;1.10;;;;;;;;;;6178394;28;20293;-77
2023/03/29 18:30:16;;;;;;;1.23;1.23;;;;;;;;;;6167167;28;20298;-76
2023/03/29 18:33:21;;;;;;;1.93;1.50;;;;;;;;;;6171663;28;20302;-77
2023/03/29 18:36:28;;;;;;;1.40;1.40;;;;;;;;;;6180640;28;20455;-77
2023/03/29 18:39:34;;;;;;;1.80;1.80;;;;;;;;;;6171751;28;20305;-78
2023/03/29 18:42:39;;;;;;;1.47;1.47;;;;;;;;;;6166279;28;20300;-77
2023/03/29 18:45:46;;;;;;;1.30;1.30;;;;;;;;;;6173103;28;20295;-76
2023/03/29 18:48:52;;;;;;;1.40;1.30;;;;;;;;;;6171615;28;20332;-77
2023/03/29 18:51:57;;;;;;;1.30;1.30;;;;;;;;;;6165696;28;20317;-77
2023/03/29 18:55:04;;;;;;;1.47;1.37;;;;;;;;;;6166854;28;20614;-77
2023/03/29 18:58:09;;;;;;;1.60;1.50;;;;;;;;;;6167958;28;20483;-77
2023/03/29 19:01:15;;;;;;;1.37;1.37;;;;;;;;;;6186368;28;20581;-76
2023/03/29 19:04:20;;;;;;;1.10;1.10;;;;;;;;;;6166189;28;20311;-77
2023/03/29 19:07:28;;;;;;;2.00;1.50;;;;;;;;;;6186780;28;20296;-76
2023/03/29 19:10:37;;;;;;;1.20;1.20;;;;;;;;;;6197445;28;20599;-77
2023/03/29 19:13:45;;;;;;;1.10;1.10;;;;;;;;;;6175871;28;20309;-77
2023/03/29 19:16:50;;;;;;;4.37;1.20;;;;;;;;;;6166247;28;20275;-78
2023/03/29 19:19:56;;;;;;;1.20;1.20;;;;;;;;;;6168851;28;20372;-76
2023/03/29 19:23:02;;;;;;;1.10;1.10;;;;;;;;;;6165568;28;20299;-78
2023/03/29 19:26:09;;;;;;;1.40;1.30;;;;;;;;;;6168808;28;20472;-76
2023/03/29 19:29:14;;;;;;;1.00;1.00;;;;;;;;;;6174579;28;20310;-76